Extreme weather reports worldwide

High gusts

Station
 
Location
 
Name
 
Wind
Knots
Gust
Knots
Vis
SM
Temp/Dew
C
Baro
inHg
METAR
 
GOH BGGH Nuuk, GL Godthaab / Nuuk Airport 48 62 1.8 1/1 29.47 BGGH 211050Z AUTO 17048G62KT 2900 -RASN FEW016/// BKN019/// OVC023/// 01/01 Q0998
GVW KGVW Belton, US Richards-Gebaur Air Force Base 36 45 17/15 30.04 KGVW 211115Z AUTO 36036G45KT 10SM BKN007 BKN011 BKN017 17/15 A3004 RMK A01
PSY SFAL Stanley, FK Port Stanley Airport 29 42 5/3 29.53 SFAL 211050Z 22029G42KT 9999 BKN022 BKN029 05/03 Q1000 TEMPO 7000 -SHRA SCT012
KVL PAVL Kivalina, US Kivalina Airport 34 42 -7/-12 29.98 PAVL 211053Z AUTO 01034G42KT 10SM SCT110 M08/M13 A2998 RMK AO2 PK WND 01043/1043 SLP153 T10781128 TSNO $
IFJ BIIS Ísafjörður, IS Ísafjörður Airport 28 42 6/3 29.82 BIIS 211100Z 24028G42KT 9999 BKN040 06/03 Q1010

Station
 
Location
 
Name
 
Wind
Knots
Gust
Knots
Vis
SM
Temp/Dew
C
Baro
inHg
METAR
 
CWZN 33 38 3/3 CWZN 211100Z AUTO 14033G38KT 03/03 RMK AO1 PK WND 14040/1049 SLP050 T00330032 58056
KHHV 29 37 5 23/19 29.95 KHHV 211115Z AUTO 06029G37KT 5SM HZ FEW021 SCT026 BKN055 23/19 A2995 RMK A01
XOG LFMO Orange/Caritat, FR Orange-Caritat (BA 115) Air Base 25 36 13/2 29.97 LFMO 211100Z AUTO 32025G36KT CAVOK 13/02 Q1015 NOSIG
BXH UAAH Balkhash, KZ Balkhash Airport 25 35 26/-2 30.06 UAAH 211100Z 08013G18MPS CAVOK 26/M02 Q1018 NOSIG RMK QFE726/0968
HET ZBHH Hohhot, CN Baita International Airport 17 35 21/-3 29.70 ZBHH 211100Z 27009G18MPS 9999 SCT040 21/M03 Q1006 BECMG TL1230 34007MPS
GLS KGLS Galveston, US Scholes International At Galveston Airport 22 35 16/15 30.06 KGLS 211107Z 34022G35KT 10SM BKN010 OVC017 16/15 A3006 RMK AO2 PK WND 33035/1054 CIG 008V013 T01610150
GRY BIGR Grímsey, IS Grímsey Airport 18 34 4/-1 29.82 BIGR 211100Z 24018G34KT 9999 FEW048 04/M01 Q1010
AVN LFMV Avignon/Caumont, FR Avignon-Caumont Airport 23 33 14/2 29.97 LFMV 211100Z AUTO 35023G33KT CAVOK 14/02 Q1015 NOSIG
EBFN Koksijde, BE Koksijde Air Base 21 32 10/2 30.30 EBFN 211055Z AUTO 03021G32KT 9999 -DZ FEW033/// 10/02 Q1026 BLU
TAZ UTAT Daşoguz, TM Daşoguz Airport 22 32 2.49 31/1 29.73 UTAT 211100Z 20022G32KT 4000 BLDU SCT020CB OVC100 31/01 Q1007 R08/CLRD70 TEMPO VRB40KT TSRA
YIO CYIO Pond Inlet, CA Pond Inlet Airport 23 32 5 -17/-22 29.76 CYIO 211127Z AUTO 05023G32KT 5SM -SN OVC060 M17/M22 A2976 RMK SLP088
DME UUDD Moscow, RU Domodedovo International Airport 21 31 16/1 29.97 UUDD 211100Z 08011G16MPS 9999 -SHRA SCT036CB 16/01 Q1015 R14R/CLRD60 TEMPO 10013G18MPS -TSRA BKN020CB
VKO UUWW Moscow, RU Vnukovo International Airport 19 31 16/2 29.97 UUWW 211100Z 08010G16MPS CAVOK 16/02 Q1015 WS R06 R06/000065 NOSIG
ENUG 14 31 -1/-9 30.59 ENUG 211120Z AUTO 14014G31KT 090V190 9999NDV NCD M01/M09 Q1036 W///S4
LWS KLWS Lewiston, US Lewiston Nez Perce County Airport 18 30 10/-1 30.17 KLWS 211056Z AUTO 30018G30KT 10SM OVC080 11/M02 A3017 RMK AO2 PK WND 30031/1032 SLP213 T01061017 $
BIU BIBD Bildudalur, IS Bildudalur Airport 20 30 7/1 29.91 BIBD 211100Z 22020G30KT 9999 FEW020 SCT028 07/01 Q1013
KNGP Corpus Christi, US Corpus Christi Naval Air Station/Truax Field 22 30 22/17 30.04 KNGP 211114Z AUTO 01022G30KT 10SM SCT015 BKN022 OVC041 22/18 A3004 RMK AO2 PK WND 01030/1108 T02220178 $
ORF KORF Norfolk, US Norfolk International Airport 18 29 12/6 29.98 KORF 211051Z 08018G29KT 10SM -RA OVC037 12/06 A2998 RMK AO2 PK WND 07031/1040 RAB10 SLP153 P0000 T01220061
PSX KPSX Palacios, US Palacios Municipal Airport 21 29 13/12 30.07 KPSX 211053Z AUTO 36021G29KT 10SM OVC020 14/13 A3007 RMK AO2 PK WND 36035/1012 SLP180 T01390128 $
KQTZ 22 29 32/9 29.77 KQTZ 211055Z 01022G29KT 9999 SCT120 BKN180 32/09 A2977 RMK PK WND 36030/07 SLP082
CZF PACZ Cape Romanzof, US Cape Romanzof LRRS Airport 12 29 3/0 29.81 PACZ 211055Z AUTO 07012G29KT 360V080 10SM -DZ OVC065 03/00 A2981 RMK AO2 DZB1006 SLP100 P0000 T00331003
CWAR 21 29 4/1 CWAR 211100Z AUTO 10021G29KT 04/02 RMK AO1 PK WND 11031/1035 SLP108 T00410016 58028
DZN UAKD Zhezkazgan, KZ Zhezkazgan Airport 19 29 24/4 30.12 UAKD 211100Z 08010G15MPS CAVOK 24/04 Q1020 NOSIG RMK QFE731/0975
AER URSS Sochi, RU Sochi International Airport 19 29 16/10 29.94 URSS 211100Z 29010G15MPS 9999 SCT050CB BKN100 16/10 Q1014 WS ALL RWY R02/010070 R06/////// NOSIG RMK R06/31010G14MPS QFE759
KLF UUBC Kaluga, RU Grabtsevo Airport 19 29 16/4 29.88 UUBC 211100Z 09010G15MPS CAVOK 16/04 Q1012 R13/CLRD60 NOSIG RMK QFE741/0988
MSQ UMMS Minsk, BY Minsk National Airport 17 29 3.73 5/4 29.88 UMMS 211115Z 02009G15MPS 6000 -SHRA BKN012CB BKN030 05/04 Q1012 TEMPO 1200 SHRA
YGW CYGW Kuujjuarapik, CA Kuujjuarapik Airport 23 29 0.13 -11/-13 29.57 CYGW 211121Z AUTO 29023G29KT 1/8SM +SN BLSN VV009 M11/M13 A2957 RMK SLP015
KSDB 20 28 13/6 30.12 KSDB 211051Z AUTO 32020G28KT 10SM CLR 13/07 A3012 RMK AO2 PK WND 32029/1002 SLP157 T01330067
PUW KPUW Pullman/Moscow, US Pullman Moscow Regional Airport 17 28 5/-1 30.21 KPUW 211053Z AUTO 25017G28KT 10SM BKN080 06/M01 A3021 RMK AO2 PK WND 25028/1050 SLP230 T00561011
NTU KNTU Virginia Beach, US Oceana Naval Air Station 11 28 12/7 29.99 KNTU 211056Z 07011G28KT 10SM OVC039 13/07 A2999 RMK AO2 PK WND 07028/1051 SLP158 T01280072
ADE OYAA Aden, YE Aden International Airport 18 28 32/26 29.76 OYAA 211100Z 12018G28KT 100V160 9999 FEW018 FEW040CB SCT200 32/26 Q1008 NOSIG
MWH KMWH Moses Lake, US Grant County International Airport 16 27 7/-2 30.17 KMWH 211052Z AUTO 25016G27KT 10SM CLR 08/M02 A3017 RMK AO2 PK WND 25029/1018 SLP217 T00781022
BPT KBPT Beaumont/Port Arthur, US Southeast Texas Regional Airport 18 27 13/12 30.06 KBPT 211053Z 36018G27KT 10SM OVC006 13/13 A3006 RMK AO2 PK WND 35029/1009 RAE0956 SLP179 P0000 T01330128 $
AKH OEPS SA Prince Sultan Air Base 12 27 4.97 37/0 29.80 OEPS 211055Z 20012G27KT 8000 SCT150 37/00 A2980 RMK AO2A SLP070 WND DATA ESTMD T03740004
NGU KNGU Norfolk, US Norfolk Naval Station (Chambers Field) 19 27 12/6 30.04 KNGU 211059Z 06019G27KT 10SM OVC040 13/06 A3004 RMK AO2 PK WND 06028/1018 PRESRR SLP172 T01280061
CDG LFPG Paris, FR Charles de Gaulle International Airport 17 27 7/2 30.24 LFPG 211100Z 36017G27KT 9999 2000 -SHRA SCT026TCU SCT030 BKN043 07/02 Q1024 BECMG NSW
K0CO 22 27 -9/-10 30.31 K0CO 211115Z AUTO 33022G27KT M09/M10 A3031 RMK AO2 PWINO
KC99 19 27 -5/-8 30.29 KC99 211115Z AUTO 31019G27KT 10SM CLR M05/M08 A3029 RMK AO2
WAA PAIW Wales, US Wales Airport 22 26 2 -10/-12 30.12 PAIW 211056Z AUTO 04022G26KT 2SM -SN BR OVC070 M11/M12 A3012 RMK AO2 PK WND 04027/1053 SLP200 P0000 T11061122 FZRANO
CWWL 19 26 7/5 CWWL 211100Z AUTO 15019G26KT 08/06 RMK AO1 PK WND 15026/1056 SLP110 T00750058 53009
YTE CYTE Cape Dorset, CA Cape Dorset Airport 14 26 9 -24/-27 29.49 CYTE 211100Z AUTO 33014G26KT 9SM CLR M24/M27 A2949 RMK SLP996
LTQ LFAT Le Touquet-Paris-Plage, FR Le Touquet-Côte d'Opale Airport 16 26 10/5 30.30 LFAT 211100Z AUTO 03016G26KT 360V070 9999 SCT027 SCT036 10/05 Q1026 TEMPO 4000 SHRA BKN014 BKN020TCU
GAY VEGY IN Gaya Airport 16 26 3.73 39/4 29.56 VEGY 211100Z 28016G26KT 6000 FEW100 39/04 Q1001 NOSIG
RKP KRKP Rockport, US Aransas County Airport 19 26 9 18/16 30.07 KRKP 211113Z AUTO 36019G26KT 9SM BKN012 OVC060 18/17 A3007 RMK AO2 PK WND 35026/1112 PRESRR T01830167
KRAS Port Aransas, US Mustang Beach Airport 18 26 / 30.07 KRAS 211115Z AUTO 36018G26KT 10SM BKN022 OVC028 A3007 RMK AO2